createdAt,value
2019-02-09T00:02:09.163Z,97.80
2019-02-09T00:04:39.532Z,97.80
2019-02-09T00:07:10.014Z,97.90
2019-02-09T00:09:40.382Z,97.80
2019-02-09T00:12:10.716Z,97.90
2019-02-09T00:14:41.009Z,97.90
2019-02-09T00:17:12.742Z,97.90
2019-02-09T00:19:42.987Z,97.90
2019-02-09T00:22:13.400Z,97.90
2019-02-09T00:24:43.719Z,98.00
2019-02-09T00:27:14.019Z,98.10
2019-02-09T00:29:46.492Z,98.20
2019-02-09T00:32:16.454Z,98.20
2019-02-09T00:34:47.080Z,98.30
2019-02-09T00:37:17.442Z,98.30
2019-02-09T00:39:48.153Z,98.40
2019-02-09T00:42:19.500Z,98.30
2019-02-09T00:44:49.725Z,98.30
2019-02-09T00:47:20.066Z,98.30
2019-02-09T00:49:50.559Z,98.40
2019-02-09T00:52:20.858Z,98.40
2019-02-09T00:54:52.313Z,98.40
2019-02-09T00:57:22.742Z,98.60
2019-02-09T00:59:54.420Z,98.50
2019-02-09T01:02:25.025Z,98.80
2019-02-09T01:04:55.299Z,98.70
2019-02-09T01:07:25.679Z,98.80
2019-02-09T01:09:57.045Z,98.70
2019-02-09T01:12:27.442Z,98.80
2019-02-09T01:14:57.763Z,98.90
2019-02-09T01:17:28.063Z,99.20
2019-02-09T01:19:58.386Z,98.80
2019-02-09T01:22:28.812Z,98.80
2019-02-09T01:24:59.116Z,98.90
2019-02-09T01:27:29.501Z,99.00
2019-02-09T01:30:02.520Z,99.00
2019-02-09T01:32:31.990Z,98.90
2019-02-09T01:35:02.623Z,98.90
2019-02-09T01:37:33.241Z,98.90
2019-02-09T01:40:03.973Z,98.80
2019-02-09T01:42:34.272Z,99.00
2019-02-09T01:45:06.779Z,98.90
2019-02-09T01:47:37.204Z,98.90
2019-02-09T01:50:09.570Z,98.80
2019-02-09T01:52:39.902Z,98.80
2019-02-09T01:55:10.717Z,98.80
2019-02-09T01:57:41.103Z,98.80
2019-02-09T02:00:16.910Z,98.80
2019-02-09T02:02:47.167Z,98.80
2019-02-09T02:05:17.939Z,98.80
2019-02-09T02:07:48.414Z,98.80
2019-02-09T02:10:28.288Z,98.80
2019-02-09T02:13:00.404Z,98.80
2019-02-09T02:15:31.632Z,98.80
2019-02-09T02:18:02.092Z,98.70
2019-02-09T02:20:32.360Z,98.70
2019-02-09T02:23:02.945Z,98.70
2019-02-09T02:25:33.421Z,98.80
2019-02-09T02:28:03.995Z,98.80
2019-02-09T02:30:36.189Z,98.80
2019-02-09T02:33:07.196Z,98.80
2019-02-09T02:35:37.649Z,98.70
2019-02-09T02:38:27.252Z,98.60
2019-02-09T02:40:57.609Z,98.60
2019-02-09T02:43:28.063Z,98.50
2019-02-09T02:45:58.449Z,98.60
2019-02-09T02:48:28.823Z,98.50
2019-02-09T02:50:59.449Z,98.50
2019-02-09T02:53:29.859Z,98.50
2019-02-09T02:56:01.112Z,98.50
2019-02-09T02:58:31.307Z,98.50
2019-02-09T03:01:01.975Z,98.50
2019-02-09T03:03:33.424Z,98.40
2019-02-09T03:06:03.742Z,98.40
2019-02-09T03:08:34.094Z,98.30
2019-02-09T03:11:04.583Z,98.30
2019-02-09T03:13:34.944Z,98.30
2019-02-09T03:16:05.556Z,98.30
2019-02-09T03:18:36.084Z,98.30
2019-02-09T03:21:06.465Z,98.40
2019-02-09T03:23:36.720Z,98.30
2019-02-09T03:26:06.993Z,98.50
2019-02-09T03:28:37.283Z,98.20
2019-02-09T03:31:07.698Z,98.20
2019-02-09T03:33:37.968Z,98.20
2019-02-09T03:36:08.716Z,98.10
2019-02-09T03:38:39.079Z,98.20
2019-02-09T03:41:09.823Z,98.10
2019-02-09T03:43:40.158Z,98.10
2019-02-09T03:46:10.410Z,98.10
2019-02-09T03:48:40.670Z,98.10
2019-02-09T03:51:11.099Z,98.20
2019-02-09T03:53:41.500Z,98.10
2019-02-09T03:56:11.875Z,98.00
2019-02-09T03:58:42.272Z,98.10
2019-02-09T04:01:12.721Z,98.10
2019-02-09T04:03:43.054Z,98.00
2019-02-09T04:06:13.397Z,98.00
2019-02-09T04:08:43.749Z,97.90
2019-02-09T04:11:14.336Z,97.80
2019-02-09T04:13:44.715Z,97.80
2019-02-09T04:16:15.067Z,97.80
2019-02-09T04:18:45.552Z,97.80
2019-02-09T04:21:16.035Z,97.70
2019-02-09T04:23:46.285Z,97.80
2019-02-09T04:26:16.722Z,97.70
2019-02-09T04:28:46.957Z,97.70
2019-02-09T04:31:17.260Z,97.70
2019-02-09T04:33:47.601Z,97.60
2019-02-09T04:36:17.941Z,97.60
2019-02-09T04:38:48.346Z,97.60
2019-02-09T04:41:18.835Z,97.70
2019-02-09T04:43:49.253Z,97.70
2019-02-09T04:46:19.677Z,97.90
2019-02-09T04:48:50.008Z,97.70
2019-02-09T04:51:20.321Z,97.70
2019-02-09T04:53:50.662Z,97.80
2019-02-09T04:56:21.168Z,97.80
2019-02-09T04:58:51.402Z,97.70
2019-02-09T05:01:21.752Z,97.80
2019-02-09T05:03:52.036Z,97.80
2019-02-09T05:06:22.504Z,97.80
2019-02-09T05:08:53.009Z,97.80
2019-02-09T05:11:23.393Z,97.80
2019-02-09T05:13:53.870Z,97.80
2019-02-09T05:16:24.134Z,97.90
2019-02-09T05:18:54.542Z,97.80
2019-02-09T05:21:24.899Z,97.90
2019-02-09T05:23:55.197Z,97.80
2019-02-09T05:26:25.504Z,97.80
2019-02-09T05:28:55.903Z,97.80
2019-02-09T05:31:26.325Z,97.80
2019-02-09T05:33:56.707Z,97.80
2019-02-09T05:36:26.992Z,97.80
2019-02-09T05:38:57.299Z,97.70
2019-02-09T05:41:27.570Z,97.80
2019-02-09T05:43:57.857Z,97.60
2019-02-09T05:46:28.363Z,97.60
2019-02-09T05:48:58.881Z,97.60
2019-02-09T05:51:29.248Z,97.60
2019-02-09T05:53:59.755Z,97.60
2019-02-09T05:56:30.134Z,97.70
2019-02-09T05:59:01.380Z,97.70
2019-02-09T06:01:32.654Z,97.70
2019-02-09T06:04:03.234Z,97.80
2019-02-09T06:06:33.646Z,97.80
2019-02-09T06:09:06.183Z,97.70
2019-02-09T06:11:36.574Z,97.70
2019-02-09T06:14:06.961Z,97.70
2019-02-09T06:16:37.251Z,97.70
2019-02-09T06:19:07.600Z,98.00
2019-02-09T06:21:37.844Z,97.70
2019-02-09T06:24:08.153Z,97.60
2019-02-09T06:26:38.484Z,97.70
2019-02-09T06:29:09.044Z,97.70
2019-02-09T06:31:41.186Z,97.60
2019-02-09T06:34:11.593Z,97.40
2019-02-09T06:36:42.086Z,97.30
2019-02-09T06:39:12.375Z,97.20
2019-02-09T06:41:42.662Z,97.10
2019-02-09T06:44:12.915Z,97.10
2019-02-09T06:46:43.533Z,96.90
2019-02-09T06:49:13.957Z,96.80
2019-02-09T06:51:44.282Z,96.70
2019-02-09T06:54:14.602Z,96.70
2019-02-09T06:56:45.973Z,96.60
2019-02-09T06:59:16.373Z,96.20
2019-02-09T07:01:48.793Z,96.00
2019-02-09T07:04:19.004Z,95.90
2019-02-09T07:06:49.322Z,95.70
2019-02-09T07:09:19.715Z,95.50
2019-02-09T07:11:50.030Z,95.40
2019-02-09T07:14:20.350Z,95.30
2019-02-09T07:16:50.614Z,95.10
2019-02-09T07:19:21.019Z,95.00
2019-02-09T07:21:52.371Z,94.90
2019-02-09T07:24:22.756Z,94.80
2019-02-09T07:26:53.218Z,94.70
2019-02-09T07:29:23.652Z,94.60
2019-02-09T07:31:56.457Z,94.40
2019-02-09T07:34:25.911Z,94.10
2019-02-09T07:36:56.184Z,94.10
2019-02-09T07:39:27.037Z,93.90
2019-02-09T07:41:57.389Z,93.90
2019-02-09T07:44:27.723Z,93.50
2019-02-09T07:46:58.038Z,93.40
2019-02-09T07:49:28.405Z,93.10
2019-02-09T07:51:58.923Z,93.10
2019-02-09T07:54:29.222Z,92.60
2019-02-09T07:56:59.779Z,92.60
2019-02-09T07:59:30.092Z,92.50
2019-02-09T08:02:04.670Z,92.60
2019-02-09T08:04:32.635Z,92.20
2019-02-09T08:07:02.983Z,92.10
2019-02-09T08:09:33.286Z,92.10
2019-02-09T08:12:03.853Z,91.90
2019-02-09T08:14:34.178Z,91.90
2019-02-09T08:17:04.575Z,91.80
2019-02-09T08:19:34.869Z,91.20
2019-02-09T08:22:05.379Z,91.20
2019-02-09T08:24:35.833Z,90.70
2019-02-09T08:27:08.032Z,90.60
2019-02-09T08:29:38.450Z,90.40
2019-02-09T08:32:12.696Z,90.30
2019-02-09T08:34:41.001Z,90.30
2019-02-09T08:37:11.386Z,90.10
2019-02-09T08:39:44.355Z,89.40
2019-02-09T08:42:14.751Z,89.30
2019-02-09T08:44:45.102Z,89.30
2019-02-09T08:47:15.494Z,89.60
2019-02-09T08:49:46.005Z,89.10
2019-02-09T08:52:16.917Z,88.40
2019-02-09T08:54:47.301Z,88.80
2019-02-09T08:57:17.680Z,87.70
2019-02-09T08:59:48.235Z,87.20
2019-02-09T09:02:20.659Z,87.50
2019-02-09T09:04:50.896Z,86.90
2019-02-09T09:10:17.829Z,86.80
2019-02-09T09:12:48.430Z,86.60
2019-02-09T09:15:22.231Z,85.90
2019-02-09T09:17:52.649Z,85.20
2019-02-09T09:20:25.869Z,85.10
2019-02-09T09:22:56.419Z,84.50
2019-02-09T09:25:26.889Z,83.90
2019-02-09T09:27:57.512Z,83.90
2019-02-09T09:30:28.474Z,83.70
2019-02-09T09:32:59.120Z,83.70
2019-02-09T09:35:30.488Z,83.00
2019-02-09T09:38:01.069Z,83.10
2019-02-09T09:40:39.652Z,82.20
2019-02-09T09:43:10.344Z,82.50
2019-02-09T09:45:41.132Z,81.60
2019-02-09T09:48:13.513Z,81.30
2019-02-09T09:50:43.965Z,81.70
2019-02-09T09:53:14.601Z,81.10
2019-02-09T09:55:45.113Z,80.50
2019-02-09T09:58:15.873Z,80.90
2019-02-09T10:00:46.162Z,80.50
2019-02-09T10:03:16.555Z,79.50
2019-02-09T10:05:47.240Z,79.50
2019-02-09T10:08:17.669Z,79.20
2019-02-09T10:10:48.095Z,79.60
2019-02-09T10:13:18.645Z,79.60
2019-02-09T10:15:49.169Z,79.80
2019-02-09T10:18:19.647Z,79.70
2019-02-09T10:20:49.983Z,79.60
2019-02-09T10:23:20.402Z,79.60
2019-02-09T10:25:50.792Z,79.30
2019-02-09T10:28:21.275Z,79.90
2019-02-09T10:30:51.638Z,79.30
2019-02-09T10:33:22.194Z,79.60
2019-02-09T10:35:52.895Z,79.50
2019-02-09T10:38:23.566Z,80.00
2019-02-09T10:40:55.239Z,80.20
2019-02-09T10:43:26.782Z,79.70
2019-02-09T10:45:57.429Z,79.60
2019-02-09T10:48:27.877Z,79.50
2019-02-09T10:50:58.435Z,79.70
2019-02-09T10:53:29.131Z,79.40
2019-02-09T10:55:59.655Z,79.70
2019-02-09T10:58:30.212Z,78.70
2019-02-09T11:01:06.563Z,78.50
2019-02-09T11:03:37.133Z,78.40
2019-02-09T11:06:08.857Z,77.70
2019-02-09T11:08:39.296Z,78.20
2019-02-09T11:11:09.742Z,78.00
2019-02-09T11:13:40.087Z,77.20
2019-02-09T11:16:10.618Z,75.90
2019-02-09T11:18:41.302Z,74.90
2019-02-09T11:21:11.565Z,72.90
2019-02-09T11:23:42.049Z,72.20
2019-02-09T11:26:12.911Z,71.00
2019-02-09T11:28:45.285Z,70.30
2019-02-09T11:31:15.838Z,69.30
2019-02-09T11:33:46.311Z,68.70
2019-02-09T11:36:16.880Z,67.80
2019-02-09T11:38:47.312Z,67.40
2019-02-09T11:41:17.754Z,67.30
2019-02-09T11:43:48.226Z,67.00
2019-02-09T11:46:18.743Z,66.50
2019-02-09T11:48:49.154Z,66.40
2019-02-09T11:51:19.815Z,65.80
2019-02-09T11:53:50.233Z,65.60
2019-02-09T11:56:20.860Z,65.50
2019-02-09T11:58:51.178Z,65.50
2019-02-09T12:01:21.718Z,65.80
2019-02-09T12:03:52.127Z,65.40
2019-02-09T12:06:22.458Z,65.70
2019-02-09T12:08:52.987Z,64.90
2019-02-09T12:11:23.733Z,64.70
2019-02-09T12:13:55.553Z,64.60
2019-02-09T12:16:26.150Z,65.00
2019-02-09T12:18:56.586Z,64.50
2019-02-09T12:21:26.963Z,63.50
2019-02-09T12:23:57.423Z,64.10
2019-02-09T12:26:27.772Z,64.50
2019-02-09T12:28:58.138Z,63.30
2019-02-09T12:31:28.854Z,64.10
2019-02-09T12:33:59.306Z,64.00
2019-02-09T12:36:29.784Z,63.90
2019-02-09T12:38:59.983Z,63.70
2019-02-09T12:41:30.439Z,64.30
2019-02-09T12:44:00.974Z,64.20
2019-02-09T12:46:32.104Z,64.00
2019-02-09T12:49:03.002Z,63.70
2019-02-09T12:51:33.515Z,63.90
2019-02-09T12:54:03.844Z,64.50
2019-02-09T12:56:34.309Z,64.40
2019-02-09T12:59:04.914Z,63.70
2019-02-09T13:01:41.784Z,63.70
2019-02-09T13:04:12.324Z,63.30
2019-02-09T13:06:42.924Z,63.60
2019-02-09T13:09:13.424Z,62.90
2019-02-09T13:11:44.005Z,62.80
2019-02-09T13:14:14.413Z,63.20
2019-02-09T13:16:44.969Z,63.00
2019-02-09T13:19:17.161Z,63.20
2019-02-09T13:21:51.643Z,63.10
2019-02-09T13:24:22.124Z,63.50
2019-02-09T13:26:52.862Z,63.90
2019-02-09T13:29:23.253Z,63.80
2019-02-09T13:31:53.759Z,64.10
2019-02-09T13:34:28.073Z,63.80
2019-02-09T13:36:58.564Z,65.10
2019-02-09T13:40:22.083Z,66.70
2019-02-09T13:43:13.464Z,69.80
2019-02-09T13:45:47.056Z,73.10
2019-02-09T13:48:17.529Z,75.30
2019-02-09T13:50:54.253Z,78.20
2019-02-09T13:53:26.248Z,80.70
2019-02-09T13:55:56.892Z,82.70
2019-02-09T13:58:27.527Z,84.50
2019-02-09T14:00:57.940Z,86.70
2019-02-09T14:03:28.385Z,87.80
2019-02-09T14:05:58.864Z,89.70
2019-02-09T14:08:29.567Z,90.10
2019-02-09T14:11:00.293Z,90.70
2019-02-09T14:13:30.804Z,90.70
2019-02-09T14:16:08.295Z,90.50
2019-02-09T14:18:33.504Z,90.40
2019-02-09T14:21:03.922Z,90.70
2019-02-09T14:23:34.463Z,90.60
2019-02-09T14:26:05.029Z,90.50
2019-02-09T14:28:35.450Z,90.00
2019-02-09T14:31:05.855Z,90.00
2019-02-09T14:33:36.340Z,90.40
2019-02-09T14:36:06.785Z,90.60
2019-02-09T14:38:37.256Z,90.40
2019-02-09T14:41:07.687Z,90.30
2019-02-09T14:43:38.052Z,90.60
2019-02-09T14:46:08.473Z,91.20
2019-02-09T14:48:39.011Z,91.20
2019-02-09T14:51:09.570Z,91.10
2019-02-09T14:53:40.321Z,91.00
2019-02-09T14:56:10.927Z,91.10
2019-02-09T14:58:41.749Z,91.10
2019-02-09T15:01:12.121Z,90.90
2019-02-09T15:03:42.653Z,91.10
2019-02-09T15:06:14.153Z,91.00
2019-02-09T15:08:51.753Z,90.90
2019-02-09T15:11:22.389Z,90.80
2019-02-09T15:13:52.694Z,91.30
2019-02-09T15:16:48.750Z,90.90
2019-02-09T15:19:22.233Z,91.10
2019-02-09T15:21:53.032Z,91.10
2019-02-09T15:24:23.796Z,91.10
2019-02-09T15:26:54.326Z,90.70
2019-02-09T15:29:26.040Z,90.60
2019-02-09T15:31:56.516Z,90.40
2019-02-09T15:34:27.055Z,90.50
2019-02-09T15:36:57.663Z,90.40
2019-02-09T15:39:28.306Z,90.40
2019-02-09T15:41:58.774Z,89.90
2019-02-09T15:44:29.288Z,89.80
2019-02-09T15:46:59.858Z,89.40
2019-02-09T15:49:30.471Z,88.80
2019-02-09T15:52:01.043Z,88.50
2019-02-09T15:54:31.708Z,88.10
2019-02-09T15:57:02.202Z,87.70
2019-02-09T15:59:32.627Z,87.60
2019-02-09T16:02:03.078Z,87.30
2019-02-09T16:04:33.761Z,87.00
2019-02-09T16:07:04.180Z,86.90
2019-02-09T16:09:34.482Z,87.20
2019-02-09T16:12:05.112Z,86.70
2019-02-09T16:14:36.450Z,86.40
2019-02-09T16:17:06.841Z,86.50
2019-02-09T16:19:37.310Z,85.80
2019-02-09T16:22:09.560Z,85.30
2019-02-09T16:24:40.010Z,85.60
2019-02-09T16:27:10.386Z,85.60
2019-02-09T16:29:41.202Z,85.50
2019-02-09T16:32:11.601Z,85.40
2019-02-09T16:34:42.323Z,84.80
2019-02-09T16:37:12.689Z,84.60
2019-02-09T16:39:43.148Z,83.90
2019-02-09T16:42:13.677Z,83.60
2019-02-09T16:44:44.061Z,83.10
2019-02-09T16:47:14.426Z,83.00
2019-02-09T16:49:45.145Z,82.50
2019-02-09T16:52:15.558Z,82.70
2019-02-09T16:54:46.413Z,82.80
2019-02-09T16:57:16.916Z,83.20
2019-02-09T16:59:47.565Z,83.20
2019-02-09T17:02:18.215Z,82.80
2019-02-09T17:04:49.004Z,82.80
2019-02-09T17:07:19.604Z,82.10
2019-02-09T17:09:51.345Z,82.10
2019-02-09T17:12:22.074Z,81.80
2019-02-09T17:14:52.495Z,82.00
2019-02-09T17:17:23.038Z,81.70
2019-02-09T17:19:53.444Z,81.90
2019-02-09T17:22:23.844Z,81.90
2019-02-09T17:24:54.355Z,81.90
2019-02-09T17:27:24.744Z,81.70
2019-02-09T17:29:55.164Z,82.20
2019-02-09T17:32:25.470Z,81.70
2019-02-09T17:34:55.928Z,81.20
2019-02-09T17:37:26.764Z,81.20
2019-02-09T17:39:57.504Z,81.00
2019-02-09T17:42:27.994Z,80.80
2019-02-09T17:44:58.707Z,80.60
2019-02-09T17:47:29.377Z,80.20
2019-02-09T17:49:59.825Z,80.20
2019-02-09T17:52:30.566Z,79.60
2019-02-09T17:55:01.192Z,79.60
2019-02-09T17:57:32.718Z,79.70
2019-02-09T18:00:04.135Z,79.30
2019-02-09T18:02:35.075Z,79.20
2019-02-09T18:05:06.041Z,79.10
2019-02-09T18:07:36.702Z,78.90
2019-02-09T18:10:09.223Z,78.50
2019-02-09T18:12:39.886Z,78.50
2019-02-09T18:15:12.771Z,77.90
2019-02-09T18:17:44.287Z,77.60
2019-02-09T18:20:15.465Z,77.60
2019-02-09T18:22:46.331Z,77.50
2019-02-09T18:25:17.574Z,77.30
2019-02-09T18:27:48.273Z,77.30
2019-02-09T18:30:21.154Z,76.40
2019-02-09T18:32:52.315Z,76.80
2019-02-09T18:35:22.617Z,76.60
2019-02-09T18:37:53.066Z,76.80
2019-02-09T18:40:23.618Z,77.40
2019-02-09T18:42:54.422Z,78.40
2019-02-09T18:45:25.991Z,78.90
2019-02-09T18:47:56.458Z,79.30
2019-02-09T18:50:27.128Z,79.20
2019-02-09T18:52:58.232Z,79.70
2019-02-09T18:55:29.611Z,79.70
2019-02-09T18:57:59.996Z,79.70
2019-02-09T19:00:31.675Z,80.10
2019-02-09T19:03:02.665Z,80.40
2019-02-09T19:05:33.413Z,80.70
2019-02-09T19:08:04.859Z,81.30
2019-02-09T19:10:35.230Z,81.30
2019-02-09T19:13:05.954Z,81.20
2019-02-09T19:15:36.424Z,80.60
2019-02-09T19:18:07.265Z,80.90
2019-02-09T19:20:40.449Z,81.80
2019-02-09T19:23:11.073Z,81.30
2019-02-09T19:25:41.754Z,81.10
2019-02-09T19:28:12.143Z,81.10
2019-02-09T19:30:42.510Z,81.20
2019-02-09T19:33:13.204Z,80.80
2019-02-09T19:35:47.195Z,80.90
2019-02-09T19:38:18.204Z,80.60
2019-02-09T19:40:48.934Z,80.40
2019-02-09T19:43:19.426Z,80.40
2019-02-09T19:45:49.903Z,80.20
2019-02-09T19:48:20.321Z,80.20
2019-02-09T19:50:50.802Z,80.30
2019-02-09T19:53:21.143Z,80.70
2019-02-09T19:55:51.461Z,80.60
2019-02-09T19:58:22.087Z,80.40
2019-02-09T20:00:52.611Z,80.30
2019-02-09T20:03:23.030Z,80.10
2019-02-09T20:05:53.665Z,80.20
2019-02-09T20:08:24.193Z,79.60
2019-02-09T20:10:54.594Z,79.70
2019-02-09T20:13:25.005Z,79.50
2019-02-09T20:15:55.515Z,79.60
2019-02-09T20:18:26.343Z,79.90
2019-02-09T20:20:57.182Z,79.80
2019-02-09T20:23:27.461Z,79.80
2019-02-09T20:25:57.822Z,79.70
2019-02-09T20:28:28.136Z,79.90
2019-02-09T20:30:58.532Z,79.90
2019-02-09T20:33:29.023Z,80.00
2019-02-09T20:35:59.351Z,80.20
2019-02-09T20:38:29.945Z,80.20
2019-02-09T20:41:03.705Z,80.50
2019-02-09T20:43:35.443Z,80.60
2019-02-09T20:46:05.832Z,80.60
2019-02-09T20:48:36.253Z,80.70
2019-02-09T20:51:06.557Z,80.70
2019-02-09T20:53:36.892Z,81.20
2019-02-09T20:56:07.242Z,80.80
2019-02-09T20:58:38.664Z,81.20
2019-02-09T21:01:09.291Z,81.30
2019-02-09T21:03:39.671Z,81.40
2019-02-09T21:06:10.193Z,82.00
2019-02-09T21:08:40.756Z,82.00
2019-02-09T21:11:11.507Z,81.80
2019-02-09T21:13:41.861Z,81.80
2019-02-09T21:20:54.690Z,81.80
2019-02-09T21:23:25.558Z,83.20
2019-02-09T21:25:55.972Z,83.40
2019-02-09T21:28:26.743Z,83.80
2019-02-09T21:30:58.652Z,83.90
2019-02-09T21:33:29.283Z,83.90
2019-02-09T21:35:59.796Z,84.10
2019-02-09T21:38:30.843Z,83.50
2019-02-09T21:41:01.250Z,83.80
2019-02-09T21:43:31.921Z,84.00
2019-02-09T21:46:02.338Z,84.50
2019-02-09T21:48:32.561Z,84.50
2019-02-09T21:51:02.984Z,84.80
2019-02-09T21:53:33.499Z,84.70
2019-02-09T21:56:04.770Z,84.60
2019-02-09T21:58:35.214Z,84.80
2019-02-09T22:01:06.396Z,84.50
2019-02-09T22:03:37.588Z,84.20
2019-02-09T22:06:08.056Z,84.10
2019-02-09T22:08:39.331Z,84.20
2019-02-09T22:11:09.606Z,83.60
2019-02-09T22:13:40.096Z,83.10
2019-02-09T22:16:11.951Z,82.80
2019-02-09T22:18:42.599Z,82.90
2019-02-09T22:21:13.412Z,82.60
2019-02-09T22:23:43.727Z,82.60
2019-02-09T22:26:15.943Z,82.40
2019-02-09T22:28:46.461Z,83.00
2019-02-09T22:31:21.872Z,83.40
2019-02-09T22:33:48.891Z,84.20
2019-02-09T22:36:19.253Z,84.60
2019-02-09T22:38:50.595Z,84.50
2019-02-09T22:41:21.030Z,84.00
2019-02-09T22:43:51.291Z,84.10
2019-02-09T22:46:21.675Z,84.80
2019-02-09T22:48:52.020Z,84.40
2019-02-09T22:51:24.849Z,84.50
2019-02-09T22:53:58.073Z,85.20
2019-02-09T22:56:28.411Z,85.00
2019-02-09T22:58:58.876Z,85.00
2019-02-09T23:01:54.032Z,85.50
2019-02-09T23:04:52.357Z,85.50
2019-02-09T23:07:25.767Z,85.60
2019-02-09T23:09:57.193Z,86.20
2019-02-09T23:12:27.718Z,86.70
2019-02-09T23:14:58.008Z,86.60
2019-02-09T23:17:28.373Z,86.50
2019-02-09T23:19:58.678Z,86.90
2019-02-09T23:22:29.001Z,87.20
2019-02-09T23:24:59.316Z,87.20
2019-02-09T23:27:29.676Z,87.90
2019-02-09T23:29:59.942Z,87.90
2019-02-09T23:32:30.395Z,88.50
2019-02-09T23:35:00.809Z,88.80
2019-02-09T23:37:31.189Z,88.60
2019-02-09T23:40:01.572Z,88.80
2019-02-09T23:42:32.162Z,89.00
2019-02-09T23:45:02.410Z,89.30
2019-02-09T23:47:32.797Z,89.30
2019-02-09T23:50:03.173Z,89.30
2019-02-09T23:52:33.383Z,89.40
2019-02-09T23:55:03.731Z,90.10
2019-02-09T23:57:34.212Z,90.00
